Time;durP1;ratioP1;P1;durP2;ratioP2;P2;SDS_P1;SDS_P2;PMS_P1;PMS_P2;Temp;Humidity;BMP_temperature;BMP_pressure;BME280_temperature;BME280_humidity;BME280_pressure;Samples;Min_cycle;Max_cycle;Signal;HPM_P1;HPM_P2
2022/07/27 00:00:23;;;;;;;5.35;2.65;;;;;;;;;;5033619;28;20052;-72
2022/07/27 00:02:50;;;;;;;4.35;2.63;;;;;;;;;;5041230;28;20052;-71
2022/07/27 00:05:15;;;;;;;3.88;2.50;;;;;;;;;;5034780;28;20136;-71
2022/07/27 00:07:41;;;;;;;3.75;2.38;;;;;;;;;;5024651;28;20136;-71
2022/07/27 00:10:07;;;;;;;5.43;2.55;;;;;;;;;;5034693;28;20053;-71
2022/07/27 00:12:32;;;;;;;5.35;2.47;;;;;;;;;;5032412;28;20076;-72
2022/07/27 00:14:58;;;;;;;2.33;2.13;;;;;;;;;;5037163;28;20499;-70
2022/07/27 00:17:26;;;;;;;3.30;2.50;;;;;;;;;;5032674;28;20065;-73
2022/07/27 00:19:52;;;;;;;4.35;3.15;;;;;;;;;;5036557;28;20048;-71
2022/07/27 00:22:17;;;;;;;4.25;2.35;;;;;;;;;;5039324;28;20044;-71
2022/07/27 00:24:43;;;;;;;3.67;2.22;;;;;;;;;;5042390;28;20044;-72
2022/07/27 00:27:08;;;;;;;4.93;2.30;;;;;;;;;;5035849;28;20049;-73
2022/07/27 00:29:34;;;;;;;3.63;2.05;;;;;;;;;;5036026;28;20467;-72
2022/07/27 00:31:59;;;;;;;3.78;2.40;;;;;;;;;;5035344;28;20056;-70
2022/07/27 00:34:25;;;;;;;4.28;2.60;;;;;;;;;;5041948;28;20592;-72
2022/07/27 00:36:51;;;;;;;6.68;2.97;;;;;;;;;;5041612;28;20053;-72
2022/07/27 00:39:16;;;;;;;3.28;2.53;;;;;;;;;;5032496;28;20049;-72
2022/07/27 00:41:42;;;;;;;7.07;2.80;;;;;;;;;;5047908;28;20410;-71
2022/07/27 00:44:07;;;;;;;6.45;2.42;;;;;;;;;;5042004;28;20049;-72
2022/07/27 00:46:33;;;;;;;4.60;3.13;;;;;;;;;;5034349;28;20051;-70
2022/07/27 00:48:59;;;;;;;8.05;3.30;;;;;;;;;;5036644;28;20064;-71
2022/07/27 00:51:25;;;;;;;7.15;3.75;;;;;;;;;;5039721;28;20048;-72
2022/07/27 00:53:52;;;;;;;7.75;4.25;;;;;;;;;;5040996;28;20041;-71
2022/07/27 00:56:18;;;;;;;4.95;3.60;;;;;;;;;;5031858;28;20041;-73
2022/07/27 00:58:47;;;;;;;8.70;3.40;;;;;;;;;;5041470;28;20063;-73
2022/07/27 01:01:13;;;;;;;3.88;3.47;;;;;;;;;;5036529;28;20059;-70
2022/07/27 01:03:39;;;;;;;3.38;3.08;;;;;;;;;;5034555;28;20580;-72
2022/07/27 01:06:04;;;;;;;6.75;3.33;;;;;;;;;;5034980;28;20057;-72
2022/07/27 01:08:30;;;;;;;6.65;3.15;;;;;;;;;;5032957;28;20048;-72
2022/07/27 01:10:57;;;;;;;6.05;3.45;;;;;;;;;;5039855;28;20045;-72
2022/07/27 01:13:27;;;;;;;4.45;3.33;;;;;;;;;;5024687;28;20507;-72
2022/07/27 01:15:54;;;;;;;5.65;3.55;;;;;;;;;;5034394;28;20069;-72
2022/07/27 01:18:32;;;;;;;7.10;4.07;;;;;;;;;;5033598;28;20056;-72
2022/07/27 01:20:58;;;;;;;5.00;3.38;;;;;;;;;;5035375;28;20083;-72
2022/07/27 01:23:25;;;;;;;5.75;3.30;;;;;;;;;;5029115;28;20057;-73
2022/07/27 01:25:50;;;;;;;5.35;2.97;;;;;;;;;;5031668;28;20137;-72
2022/07/27 01:28:16;;;;;;;7.07;2.80;;;;;;;;;;5033111;28;20477;-72
2022/07/27 01:30:41;;;;;;;4.65;3.00;;;;;;;;;;5034213;28;20057;-70
2022/07/27 01:33:08;;;;;;;7.93;2.80;;;;;;;;;;5029981;28;20103;-71
2022/07/27 01:35:38;;;;;;;8.13;3.05;;;;;;;;;;5033663;28;20446;-71
2022/07/27 01:38:04;;;;;;;10.80;3.33;;;;;;;;;;5032145;28;20576;-71
2022/07/27 01:40:30;;;;;;;3.80;3.40;;;;;;;;;;5029390;28;20051;-72
2022/07/27 01:42:56;;;;;;;9.63;3.35;;;;;;;;;;5033526;28;20049;-71
2022/07/27 01:45:21;;;;;;;11.38;3.33;;;;;;;;;;5033731;28;20049;-71
2022/07/27 01:47:47;;;;;;;7.25;3.10;;;;;;;;;;5032326;28;20053;-72
2022/07/27 01:50:13;;;;;;;4.65;3.63;;;;;;;;;;5031638;28;20052;-71
2022/07/27 01:52:38;;;;;;;6.22;3.85;;;;;;;;;;5033212;28;20073;-72
2022/07/27 01:55:09;;;;;;;7.70;3.78;;;;;;;;;;5030908;28;20041;-70
2022/07/27 01:57:35;;;;;;;4.28;3.08;;;;;;;;;;5029983;28;21039;-70
2022/07/27 02:00:02;;;;;;;6.57;3.55;;;;;;;;;;5029238;28;20049;-71
2022/07/27 02:02:38;;;;;;;5.88;3.50;;;;;;;;;;5035911;28;20123;-72
2022/07/27 02:05:04;;;;;;;7.75;3.80;;;;;;;;;;5029116;28;20057;-73
2022/07/27 02:07:30;;;;;;;6.82;4.10;;;;;;;;;;5033060;28;20111;-71
2022/07/27 02:09:55;;;;;;;10.93;3.58;;;;;;;;;;5027971;28;20057;-71
2022/07/27 02:12:36;;;;;;;9.73;3.65;;;;;;;;;;5032813;28;20049;-71
2022/07/27 02:15:06;;;;;;;5.22;3.42;;;;;;;;;;5027671;28;20128;-72
2022/07/27 02:17:31;;;;;;;6.43;3.90;;;;;;;;;;5038178;28;20045;-72
2022/07/27 02:19:57;;;;;;;3.67;3.25;;;;;;;;;;5030835;28;20083;-72
2022/07/27 02:22:22;;;;;;;8.30;4.40;;;;;;;;;;5038431;28;20045;-72
2022/07/27 02:24:47;;;;;;;9.95;3.88;;;;;;;;;;5039214;28;20403;-72
2022/07/27 02:27:13;;;;;;;3.95;3.28;;;;;;;;;;5030149;28;20049;-72
2022/07/27 02:29:38;;;;;;;7.63;4.32;;;;;;;;;;5037861;28;21003;-72
2022/07/27 02:32:04;;;;;;;8.65;3.60;;;;;;;;;;5038890;28;20507;-73
2022/07/27 02:34:29;;;;;;;5.82;3.40;;;;;;;;;;5036914;28;20100;-72
2022/07/27 02:36:55;;;;;;;7.90;3.45;;;;;;;;;;5039492;28;20126;-72
2022/07/27 02:39:20;;;;;;;7.53;3.38;;;;;;;;;;5036746;28;20044;-72
2022/07/27 02:41:47;;;;;;;7.70;4.28;;;;;;;;;;5029079;28;20053;-72
2022/07/27 02:44:13;;;;;;;11.20;3.67;;;;;;;;;;5031046;28;20049;-73
2022/07/27 02:46:39;;;;;;;6.03;3.38;;;;;;;;;;5036214;28;20048;-72
2022/07/27 02:49:05;;;;;;;5.32;3.72;;;;;;;;;;5041840;28;20052;-72
2022/07/27 02:51:30;;;;;;;6.18;3.20;;;;;;;;;;5036407;28;20427;-72
2022/07/27 02:53:56;;;;;;;8.60;3.47;;;;;;;;;;5037422;28;20628;-72
2022/07/27 02:56:21;;;;;;;5.82;3.60;;;;;;;;;;5029634;28;20631;-71
2022/07/27 02:58:47;;;;;;;8.02;3.30;;;;;;;;;;5033497;28;20089;-71
2022/07/27 03:01:13;;;;;;;4.07;3.28;;;;;;;;;;5037534;28;20041;-73
2022/07/27 03:03:40;;;;;;;3.45;3.15;;;;;;;;;;5029166;28;20349;-71
2022/07/27 03:06:06;;;;;;;5.35;3.75;;;;;;;;;;5040317;28;20063;-70
2022/07/27 03:08:33;;;;;;;5.95;3.50;;;;;;;;;;5036220;28;20045;-70
2022/07/27 03:10:58;;;;;;;11.57;3.88;;;;;;;;;;5035124;28;20081;-70
2022/07/27 03:13:24;;;;;;;7.63;3.45;;;;;;;;;;5036377;28;20092;-71
2022/07/27 03:15:49;;;;;;;6.40;3.38;;;;;;;;;;5033808;28;20052;-71
2022/07/27 03:18:15;;;;;;;11.48;3.40;;;;;;;;;;5039968;28;20056;-73
2022/07/27 03:20:40;;;;;;;7.18;3.25;;;;;;;;;;5034255;28;20041;-71
2022/07/27 03:23:06;;;;;;;5.72;3.42;;;;;;;;;;5033349;28;20053;-71
2022/07/27 03:25:31;;;;;;;7.75;3.47;;;;;;;;;;5032991;28;20550;-70
2022/07/27 03:27:57;;;;;;;3.70;3.05;;;;;;;;;;5033664;28;20080;-71
2022/07/27 03:30:22;;;;;;;7.72;3.30;;;;;;;;;;5030694;28;20127;-71
2022/07/27 03:32:47;;;;;;;3.95;3.28;;;;;;;;;;5032847;28;20049;-72
2022/07/27 03:35:14;;;;;;;6.88;3.30;;;;;;;;;;5031543;28;20053;-72
2022/07/27 03:37:39;;;;;;;6.20;3.05;;;;;;;;;;5032851;28;20159;-71
2022/07/27 03:40:05;;;;;;;7.70;3.45;;;;;;;;;;5035651;28;20124;-70
2022/07/27 03:42:31;;;;;;;11.05;3.88;;;;;;;;;;5033874;28;20199;-72
2022/07/27 03:44:56;;;;;;;4.55;3.38;;;;;;;;;;5034194;28;20036;-71
2022/07/27 03:47:23;;;;;;;6.72;3.50;;;;;;;;;;5030231;28;20402;-72
2022/07/27 03:49:51;;;;;;;6.75;3.75;;;;;;;;;;5031937;28;20062;-72
2022/07/27 03:52:17;;;;;;;9.63;4.13;;;;;;;;;;5034798;28;20045;-70
2022/07/27 03:54:43;;;;;;;12.07;4.53;;;;;;;;;;5032401;28;20138;-71
2022/07/27 03:57:08;;;;;;;10.70;4.30;;;;;;;;;;5035055;28;20136;-71
2022/07/27 03:59:33;;;;;;;10.10;3.95;;;;;;;;;;5036140;28;20041;-72
2022/07/27 04:01:59;;;;;;;6.05;3.90;;;;;;;;;;5037412;28;20144;-73
2022/07/27 04:04:24;;;;;;;10.45;3.55;;;;;;;;;;5042250;28;20045;-71
2022/07/27 04:06:50;;;;;;;4.53;3.80;;;;;;;;;;5034812;28;20199;-71
2022/07/27 04:09:15;;;;;;;7.18;3.92;;;;;;;;;;5036584;28;20049;-73
2022/07/27 04:11:42;;;;;;;5.85;4.00;;;;;;;;;;5035759;28;20048;-72
2022/07/27 04:14:07;;;;;;;7.47;3.92;;;;;;;;;;5039982;28;20056;-73
2022/07/27 04:16:33;;;;;;;7.18;3.53;;;;;;;;;;5034734;28;20053;-72
2022/07/27 04:18:58;;;;;;;9.55;3.22;;;;;;;;;;5038420;28;20136;-72
2022/07/27 04:21:24;;;;;;;3.30;2.90;;;;;;;;;;5034364;28;20062;-71
2022/07/27 04:23:49;;;;;;;5.60;3.60;;;;;;;;;;5031775;28;20065;-71
2022/07/27 04:26:14;;;;;;;5.15;3.45;;;;;;;;;;5032451;28;20153;-73
2022/07/27 04:28:41;;;;;;;4.45;3.42;;;;;;;;;;5035314;28;20049;-72
2022/07/27 04:31:06;;;;;;;9.60;3.63;;;;;;;;;;5027839;28;20081;-73
2022/07/27 04:33:31;;;;;;;6.25;3.30;;;;;;;;;;5027238;28;20128;-72
2022/07/27 04:35:57;;;;;;;6.78;3.30;;;;;;;;;;5033983;28;20075;-72
2022/07/27 04:38:22;;;;;;;4.47;3.53;;;;;;;;;;5034020;28;20475;-72
2022/07/27 04:40:48;;;;;;;5.57;3.10;;;;;;;;;;5037403;28;20130;-74
2022/07/27 04:43:13;;;;;;;5.50;2.88;;;;;;;;;;5036661;28;20055;-71
2022/07/27 04:45:39;;;;;;;6.20;3.58;;;;;;;;;;5039590;28;20138;-72
2022/07/27 04:48:06;;;;;;;5.45;3.40;;;;;;;;;;5041110;28;20041;-73
2022/07/27 04:50:31;;;;;;;7.70;3.58;;;;;;;;;;5039168;28;20415;-74
2022/07/27 04:52:57;;;;;;;7.75;3.35;;;;;;;;;;5032781;28;20526;-74
2022/07/27 04:55:22;;;;;;;5.68;3.47;;;;;;;;;;5026570;28;20411;-72
2022/07/27 04:57:48;;;;;;;4.22;2.85;;;;;;;;;;5023252;28;20053;-72
2022/07/27 05:00:14;;;;;;;5.28;3.40;;;;;;;;;;5030383;28;20048;-72
2022/07/27 05:02:39;;;;;;;6.32;2.85;;;;;;;;;;5027977;28;20053;-73
2022/07/27 05:05:07;;;;;;;9.27;3.17;;;;;;;;;;5024872;28;20046;-72
2022/07/27 05:07:32;;;;;;;5.78;3.17;;;;;;;;;;5032034;28;20431;-71
2022/07/27 05:09:58;;;;;;;4.97;2.95;;;;;;;;;;5026733;28;20061;-72
2022/07/27 05:12:23;;;;;;;14.55;3.50;;;;;;;;;;5027072;28;20048;-71
2022/07/27 05:14:48;;;;;;;10.60;3.30;;;;;;;;;;5025016;28;20475;-71
2022/07/27 05:17:14;;;;;;;13.32;3.67;;;;;;;;;;5030300;28;20411;-71
2022/07/27 05:19:39;;;;;;;13.88;3.17;;;;;;;;;;5036363;28;20462;-72
2022/07/27 05:22:05;;;;;;;5.20;3.05;;;;;;;;;;5029430;28;20041;-71
2022/07/27 05:24:30;;;;;;;6.07;2.90;;;;;;;;;;5033877;28;20033;-71
2022/07/27 05:26:55;;;;;;;6.85;2.45;;;;;;;;;;5029615;28;20440;-71
2022/07/27 05:29:21;;;;;;;8.15;3.33;;;;;;;;;;5038058;28;20057;-71
2022/07/27 05:31:46;;;;;;;11.23;2.80;;;;;;;;;;5033348;28;20148;-71
2022/07/27 05:34:11;;;;;;;12.95;3.25;;;;;;;;;;5036241;28;20514;-71
2022/07/27 05:36:37;;;;;;;7.35;2.70;;;;;;;;;;5039052;28;20041;-71
2022/07/27 05:39:02;;;;;;;5.78;2.30;;;;;;;;;;5031234;28;20053;-71
2022/07/27 05:41:28;;;;;;;4.57;2.22;;;;;;;;;;5031455;28;20052;-71
2022/07/27 05:43:54;;;;;;;14.85;2.92;;;;;;;;;;5040191;28;20064;-71
2022/07/27 05:46:20;;;;;;;3.33;2.50;;;;;;;;;;5033649;28;20061;-71
2022/07/27 05:48:46;;;;;;;13.00;2.47;;;;;;;;;;5037165;28;20052;-71
2022/07/27 05:51:11;;;;;;;3.00;2.22;;;;;;;;;;5040186;28;20110;-71
2022/07/27 05:53:37;;;;;;;4.95;2.70;;;;;;;;;;5034738;28;20059;-70
2022/07/27 05:56:03;;;;;;;4.25;2.78;;;;;;;;;;5022869;28;20053;-70
2022/07/27 05:58:29;;;;;;;3.72;2.22;;;;;;;;;;5035223;28;20135;-70
2022/07/27 06:00:57;;;;;;;3.75;2.08;;;;;;;;;;5030691;28;20052;-71
2022/07/27 06:03:23;;;;;;;4.72;2.20;;;;;;;;;;5039600;28;20108;-71
2022/07/27 06:05:48;;;;;;;2.90;2.25;;;;;;;;;;5036993;28;20125;-70
2022/07/27 06:08:14;;;;;;;3.45;2.17;;;;;;;;;;5037567;28;20082;-72
2022/07/27 06:10:40;;;;;;;2.75;2.45;;;;;;;;;;5026412;28;20507;-72
2022/07/27 06:13:07;;;;;;;7.38;2.25;;;;;;;;;;5031668;28;20068;-73
2022/07/27 06:15:33;;;;;;;3.78;2.47;;;;;;;;;;5032334;28;20120;-75
2022/07/27 06:17:59;;;;;;;2.25;2.10;;;;;;;;;;5023647;28;20427;-74
2022/07/27 06:20:25;;;;;;;2.35;2.15;;;;;;;;;;5024790;28;20049;-74
2022/07/27 06:22:57;;;;;;;2.70;2.22;;;;;;;;;;5036037;28;20065;-74
2022/07/27 06:25:26;;;;;;;8.52;2.30;;;;;;;;;;5027549;28;20064;-72
2022/07/27 06:27:52;;;;;;;4.78;2.13;;;;;;;;;;5030979;28;20095;-72
2022/07/27 06:30:21;;;;;;;2.33;1.90;;;;;;;;;;5035608;28;20048;-72
2022/07/27 06:32:47;;;;;;;7.03;2.20;;;;;;;;;;5035246;28;20056;-71
2022/07/27 06:35:13;;;;;;;2.60;1.80;;;;;;;;;;5028329;28;20053;-73
2022/07/27 06:37:51;;;;;;;3.33;2.20;;;;;;;;;;5034152;28;20057;-76
2022/07/27 06:40:17;;;;;;;4.32;1.85;;;;;;;;;;5029139;28;20499;-71
2022/07/27 06:42:43;;;;;;;3.50;1.73;;;;;;;;;;5034105;28;20041;-74
2022/07/27 06:45:10;;;;;;;3.10;1.92;;;;;;;;;;5029676;28;20492;-73
2022/07/27 06:47:36;;;;;;;4.70;1.75;;;;;;;;;;5033469;28;20049;-76
2022/07/27 06:50:02;;;;;;;4.88;1.90;;;;;;;;;;5030116;28;20060;-73
2022/07/27 06:52:27;;;;;;;6.28;2.10;;;;;;;;;;5032878;28;20049;-74
2022/07/27 06:54:53;;;;;;;2.58;1.60;;;;;;;;;;5033419;28;20922;-75
2022/07/27 06:57:18;;;;;;;4.45;1.65;;;;;;;;;;5030115;28;20131;-72
2022/07/27 06:59:44;;;;;;;5.75;2.40;;;;;;;;;;5024634;28;20085;-72
2022/07/27 07:02:09;;;;;;;2.28;1.40;;;;;;;;;;5035441;28;20041;-73
2022/07/27 07:04:35;;;;;;;2.35;1.50;;;;;;;;;;5031185;28;20131;-74
2022/07/27 07:07:00;;;;;;;2.75;1.80;;;;;;;;;;5033375;28;20049;-73
2022/07/27 07:09:29;;;;;;;3.40;1.98;;;;;;;;;;5037024;28;20126;-72
2022/07/27 07:11:55;;;;;;;9.02;2.10;;;;;;;;;;5028982;28;20537;-73
2022/07/27 07:14:21;;;;;;;3.72;1.70;;;;;;;;;;5039746;28;20051;-72
2022/07/27 07:16:47;;;;;;;2.50;1.70;;;;;;;;;;5028455;28;20060;-72
2022/07/27 07:19:13;;;;;;;4.97;1.77;;;;;;;;;;5021468;28;20045;-72
2022/07/27 07:21:38;;;;;;;9.23;2.20;;;;;;;;;;5042486;28;20048;-70
2022/07/27 07:24:04;;;;;;;3.08;1.80;;;;;;;;;;5042219;28;20136;-71
2022/07/27 07:26:31;;;;;;;3.13;1.90;;;;;;;;;;5038877;28;20049;-72
2022/07/27 07:28:57;;;;;;;5.07;1.88;;;;;;;;;;5042993;28;20611;-74
2022/07/27 07:31:22;;;;;;;2.40;1.60;;;;;;;;;;5039866;28;20131;-72
2022/07/27 07:33:48;;;;;;;2.13;1.63;;;;;;;;;;5034527;28;20537;-71
2022/07/27 07:36:13;;;;;;;2.65;1.60;;;;;;;;;;5038376;28;20399;-75
2022/07/27 07:38:39;;;;;;;5.15;1.70;;;;;;;;;;5041746;28;20052;-69
2022/07/27 07:41:04;;;;;;;4.80;1.67;;;;;;;;;;5043215;28;20515;-70
2022/07/27 07:43:30;;;;;;;5.22;2.03;;;;;;;;;;5042088;28;20041;-69
2022/07/27 07:45:55;;;;;;;3.40;1.40;;;;;;;;;;5041179;28;20407;-73
2022/07/27 07:48:21;;;;;;;1.90;1.60;;;;;;;;;;5040615;28;20041;-72
2022/07/27 07:50:49;;;;;;;6.97;1.70;;;;;;;;;;5026628;28;20067;-74
2022/07/27 07:53:14;;;;;;;1.83;1.45;;;;;;;;;;5039179;28;20078;-74
2022/07/27 07:55:40;;;;;;;4.63;1.73;;;;;;;;;;5040123;28;20045;-75
2022/07/27 07:58:05;;;;;;;5.32;2.05;;;;;;;;;;5028751;28;20052;-74
2022/07/27 08:00:31;;;;;;;5.47;1.95;;;;;;;;;;5038517;28;20898;-71
2022/07/27 08:02:57;;;;;;;1.65;1.48;;;;;;;;;;5034294;28;20110;-74
2022/07/27 08:05:23;;;;;;;5.85;1.75;;;;;;;;;;5040390;28;20471;-70
2022/07/27 08:07:49;;;;;;;2.95;1.63;;;;;;;;;;5042110;28;20056;-75
2022/07/27 08:10:16;;;;;;;7.10;1.75;;;;;;;;;;5040894;28;20087;-74
2022/07/27 08:12:44;;;;;;;2.55;1.70;;;;;;;;;;5042371;28;20037;-74
2022/07/27 08:15:12;;;;;;;2.22;1.65;;;;;;;;;;5041861;28;20041;-74
2022/07/27 08:17:37;;;;;;;6.88;1.58;;;;;;;;;;5038079;28;20056;-74
2022/07/27 08:20:04;;;;;;;3.15;1.95;;;;;;;;;;5037003;28;20049;-74
2022/07/27 08:22:29;;;;;;;7.60;2.40;;;;;;;;;;5040736;28;20503;-73
2022/07/27 08:24:55;;;;;;;2.60;1.92;;;;;;;;;;5039147;28;20133;-72
2022/07/27 08:27:20;;;;;;;4.13;1.65;;;;;;;;;;5034186;28;20059;-76
2022/07/27 08:29:46;;;;;;;5.47;1.73;;;;;;;;;;5028911;28;20465;-70
2022/07/27 08:32:11;;;;;;;2.22;1.80;;;;;;;;;;5036173;28;20434;-72
2022/07/27 08:34:37;;;;;;;5.60;1.88;;;;;;;;;;5034378;28;20045;-72
2022/07/27 08:37:02;;;;;;;1.50;1.40;;;;;;;;;;5041662;28;20049;-72
2022/07/27 08:39:28;;;;;;;2.47;1.80;;;;;;;;;;5040666;28;20048;-71
2022/07/27 08:41:54;;;;;;;3.13;1.50;;;;;;;;;;5039633;28;20118;-74
2022/07/27 08:44:23;;;;;;;5.18;1.60;;;;;;;;;;5040360;28;20049;-74
2022/07/27 08:46:50;;;;;;;3.53;1.60;;;;;;;;;;5035716;28;20049;-73
2022/07/27 08:49:16;;;;;;;4.55;1.60;;;;;;;;;;5026332;28;20056;-73
2022/07/27 08:51:43;;;;;;;1.50;1.38;;;;;;;;;;5031497;28;20068;-72
2022/07/27 08:54:08;;;;;;;5.47;1.60;;;;;;;;;;5031741;28;20098;-72
2022/07/27 08:56:34;;;;;;;5.20;1.50;;;;;;;;;;5040984;28;20045;-73
2022/07/27 08:58:59;;;;;;;2.40;1.45;;;;;;;;;;5041244;28;20051;-74
2022/07/27 09:01:25;;;;;;;3.08;1.50;;;;;;;;;;5036645;28;20115;-73
2022/07/27 09:03:50;;;;;;;2.95;1.42;;;;;;;;;;5034786;28;20139;-73
2022/07/27 09:06:53;;;;;;;2.13;1.60;;;;;;;;;;5039851;28;20135;-73
2022/07/27 09:09:20;;;;;;;3.30;1.45;;;;;;;;;;5040951;28;20549;-72
2022/07/27 09:12:08;;;;;;;3.75;1.50;;;;;;;;;;5034513;28;20123;-73
2022/07/27 09:14:35;;;;;;;2.42;1.23;;;;;;;;;;5027685;28;20103;-74
2022/07/27 09:17:24;;;;;;;4.78;1.30;;;;;;;;;;5034944;28;20055;-73
2022/07/27 09:19:57;;;;;;;3.72;1.27;;;;;;;;;;5024174;28;20081;-74
2022/07/27 09:22:43;;;;;;;5.38;1.20;;;;;;;;;;5029189;28;20094;-73
2022/07/27 09:25:11;;;;;;;6.25;1.35;;;;;;;;;;5029347;28;20048;-72
2022/07/27 09:27:37;;;;;;;3.38;1.30;;;;;;;;;;5039206;28;20623;-71
2022/07/27 09:30:08;;;;;;;3.05;1.40;;;;;;;;;;5040544;28;20057;-71
2022/07/27 09:32:33;;;;;;;3.92;1.50;;;;;;;;;;5039159;28;20045;-72
2022/07/27 09:35:14;;;;;;;3.75;1.27;;;;;;;;;;5041325;28;20111;-73
2022/07/27 09:37:39;;;;;;;3.45;1.20;;;;;;;;;;5033082;28;20048;-73
2022/07/27 09:40:25;;;;;;;4.88;1.50;;;;;;;;;;5034068;28;20041;-73
2022/07/27 09:43:11;;;;;;;2.25;1.00;;;;;;;;;;5039960;28;20053;-73
2022/07/27 09:45:39;;;;;;;1.98;1.20;;;;;;;;;;5039762;28;20063;-72
2022/07/27 09:48:08;;;;;;;1.65;1.40;;;;;;;;;;5040028;28;20053;-72
2022/07/27 09:50:34;;;;;;;4.88;1.40;;;;;;;;;;5032568;28;20059;-73
2022/07/27 09:53:33;;;;;;;1.83;1.25;;;;;;;;;;5038315;28;20411;-73
2022/07/27 09:56:00;;;;;;;3.53;1.10;;;;;;;;;;5025415;28;20045;-71
2022/07/27 09:58:54;;;;;;;1.77;0.80;;;;;;;;;;5034605;28;20064;-71
2022/07/27 10:01:25;;;;;;;1.63;1.00;;;;;;;;;;5038438;28;20045;-72
2022/07/27 10:03:54;;;;;;;3.88;1.20;;;;;;;;;;5026153;28;20127;-72
2022/07/27 10:06:21;;;;;;;3.45;1.40;;;;;;;;;;5031486;28;20115;-73
2022/07/27 10:08:49;;;;;;;2.90;1.17;;;;;;;;;;5030554;28;20087;-73
2022/07/27 10:11:15;;;;;;;2.70;1.00;;;;;;;;;;5023434;28;20064;-74
2022/07/27 10:13:41;;;;;;;6.30;1.25;;;;;;;;;;5039214;28;20056;-75
2022/07/27 10:16:12;;;;;;;1.52;1.20;;;;;;;;;;5039137;28;20053;-73
2022/07/27 10:18:44;;;;;;;;;;;;;;;;;;5030547;28;20049;-71
2022/07/27 10:21:09;;;;;;;;;;;;;;;;;;5026827;28;19921;-72
2022/07/27 10:23:37;;;;;;;2.88;1.40;;;;;;;;;;5030983;28;19974;-72
2022/07/27 10:26:14;;;;;;;11.38;1.50;;;;;;;;;;5033902;28;20110;-72
2022/07/27 10:29:03;;;;;;;1.77;1.17;;;;;;;;;;5028557;28;20049;-72
2022/07/27 10:31:35;;;;;;;2.90;1.20;;;;;;;;;;5031808;28;20052;-70
2022/07/27 10:34:06;;;;;;;2.05;1.20;;;;;;;;;;5038312;28;20053;-71
2022/07/27 10:36:31;;;;;;;;;;;;;;;;;;5039895;28;20069;-72
2022/07/27 10:38:59;;;;;;;2.63;0.88;;;;;;;;;;5024163;28;19920;-72
2022/07/27 10:41:29;;;;;;;3.80;0.90;;;;;;;;;;5037995;28;20044;-71
2022/07/27 10:44:13;;;;;;;4.93;1.10;;;;;;;;;;5039424;28;20578;-71
2022/07/27 10:47:00;;;;;;;6.10;1.10;;;;;;;;;;5023716;28;20182;-72
2022/07/27 10:49:28;;;;;;;1.42;1.00;;;;;;;;;;5034020;28;20053;-72
2022/07/27 10:51:55;;;;;;;2.63;1.25;;;;;;;;;;5038959;28;20142;-70
2022/07/27 10:54:38;;;;;;;1.60;1.23;;;;;;;;;;5036239;28;20050;-72
2022/07/27 10:57:07;;;;;;;2.30;1.30;;;;;;;;;;5026811;28;20068;-71
2022/07/27 10:59:39;;;;;;;5.07;1.25;;;;;;;;;;5028057;28;20049;-71
2022/07/27 11:02:08;;;;;;;;;;;;;;;;;;5039114;28;20487;-74
2022/07/27 11:04:43;;;;;;;1.55;1.30;;;;;;;;;;5043144;28;19963;-72
2022/07/27 11:07:09;;;;;;;2.50;1.23;;;;;;;;;;5034455;28;20388;-73
2022/07/27 11:09:39;;;;;;;1.58;1.40;;;;;;;;;;5036295;28;20056;-72
2022/07/27 11:12:06;;;;;;;3.42;1.40;;;;;;;;;;5038737;28;20049;-72
2022/07/27 11:14:55;;;;;;;2.75;1.15;;;;;;;;;;5041510;28;20041;-72
2022/07/27 11:17:23;;;;;;;2.78;1.80;;;;;;;;;;5032231;28;20053;-72
2022/07/27 11:19:57;;;;;;;8.68;1.50;;;;;;;;;;5034779;28;20132;-70
2022/07/27 11:22:32;;;;;;;3.15;1.45;;;;;;;;;;5040782;28;20415;-72
2022/07/27 11:24:58;;;;;;;7.00;1.70;;;;;;;;;;5041156;28;20801;-72
2022/07/27 11:27:25;;;;;;;5.07;1.65;;;;;;;;;;5027767;28;20059;-72
2022/07/27 11:29:50;;;;;;;2.78;1.20;;;;;;;;;;5038168;28;20179;-72
2022/07/27 11:32:17;;;;;;;2.90;1.10;;;;;;;;;;5033992;28;20962;-71
2022/07/27 11:34:43;;;;;;;1.98;1.00;;;;;;;;;;5033161;28;20048;-72
2022/07/27 11:37:22;;;;;;;2.35;1.38;;;;;;;;;;5042232;28;20049;-72
2022/07/27 11:39:57;;;;;;;1.20;1.02;;;;;;;;;;5030234;28;20045;-72
2022/07/27 11:42:22;;;;;;;3.63;1.20;;;;;;;;;;5034289;28;20068;-72
2022/07/27 11:44:48;;;;;;;3.90;1.20;;;;;;;;;;5038033;28;20435;-71
2022/07/27 11:47:19;;;;;;;4.57;1.30;;;;;;;;;;5039245;28;20053;-74
2022/07/27 11:49:45;;;;;;;11.85;1.33;;;;;;;;;;5034073;28;20415;-74
2022/07/27 11:52:10;;;;;;;6.65;1.63;;;;;;;;;;5033339;28;20045;-73
2022/07/27 11:54:38;;;;;;;4.82;1.20;;;;;;;;;;5041994;28;20162;-75
2022/07/27 11:57:11;;;;;;;3.00;1.45;;;;;;;;;;5042237;28;20041;-72
2022/07/27 11:59:39;;;;;;;3.53;1.52;;;;;;;;;;5038843;28;20041;-73
2022/07/27 12:02:12;;;;;;;3.17;1.30;;;;;;;;;;5038738;28;20041;-74
2022/07/27 12:04:40;;;;;;;1.98;1.40;;;;;;;;;;5041686;28;20491;-73
2022/07/27 12:07:05;;;;;;;3.20;1.40;;;;;;;;;;5040513;28;20057;-74
2022/07/27 12:09:37;;;;;;;3.75;1.40;;;;;;;;;;5029872;28;20084;-73
2022/07/27 12:12:15;;;;;;;3.88;1.10;;;;;;;;;;5039955;28;20103;-73
2022/07/27 12:14:53;;;;;;;8.30;1.52;;;;;;;;;;5029082;28;20045;-73
2022/07/27 12:17:39;;;;;;;1.95;1.27;;;;;;;;;;5022386;28;20058;-73
2022/07/27 12:20:04;;;;;;;2.70;1.40;;;;;;;;;;5038532;28;20214;-73
2022/07/27 12:22:39;;;;;;;5.55;1.48;;;;;;;;;;5034070;28;20137;-74
2022/07/27 12:25:18;;;;;;;3.42;1.40;;;;;;;;;;5025930;28;20045;-74
2022/07/27 12:28:00;;;;;;;4.72;1.50;;;;;;;;;;5026098;28;20135;-71
2022/07/27 12:30:43;;;;;;;2.22;1.05;;;;;;;;;;5031349;28;20052;-72
2022/07/27 12:33:25;;;;;;;4.25;1.10;;;;;;;;;;5032250;28;20047;-72
2022/07/27 12:35:51;;;;;;;8.10;1.30;;;;;;;;;;5027088;28;20567;-73
2022/07/27 12:38:17;;;;;;;6.47;1.40;;;;;;;;;;5023910;28;20075;-72
2022/07/27 12:40:45;;;;;;;3.65;1.40;;;;;;;;;;5033529;28;20044;-73
2022/07/27 12:43:16;;;;;;;4.10;1.00;;;;;;;;;;5033259;28;20049;-72
2022/07/27 12:45:41;;;;;;;2.58;1.13;;;;;;;;;;5021100;28;20715;-72
2022/07/27 12:48:11;;;;;;;4.30;1.20;;;;;;;;;;5017456;28;20063;-72
2022/07/27 12:50:39;;;;;;;3.42;1.10;;;;;;;;;;5025966;28;20098;-72
2022/07/27 12:53:04;;;;;;;2.40;1.30;;;;;;;;;;5030960;28;20043;-73
2022/07/27 12:55:30;;;;;;;2.80;1.40;;;;;;;;;;5030624;28;20043;-72
2022/07/27 12:57:56;;;;;;;4.38;1.30;;;;;;;;;;5019989;28;20144;-71
2022/07/27 13:00:24;;;;;;;4.20;1.20;;;;;;;;;;5025229;28;20123;-72
2022/07/27 13:02:49;;;;;;;2.25;1.00;;;;;;;;;;5030272;28;20045;-72
2022/07/27 13:05:16;;;;;;;2.72;1.33;;;;;;;;;;5025457;28;20377;-73
2022/07/27 13:07:44;;;;;;;1.98;1.30;;;;;;;;;;5023288;28;20067;-75
2022/07/27 13:10:10;;;;;;;2.78;1.00;;;;;;;;;;5021382;28;20049;-73
2022/07/27 13:12:37;;;;;;;1.88;1.08;;;;;;;;;;5023389;28;20045;-73
2022/07/27 13:15:04;;;;;;;1.45;1.30;;;;;;;;;;5025664;28;20049;-74
2022/07/27 13:17:30;;;;;;;1.20;1.10;;;;;;;;;;5028322;28;20045;-76
2022/07/27 13:19:55;;;;;;;3.28;1.00;;;;;;;;;;5027514;28;20635;-75
2022/07/27 13:22:21;;;;;;;1.45;1.10;;;;;;;;;;5029639;28;20047;-73
2022/07/27 13:24:47;;;;;;;6.35;1.10;;;;;;;;;;5022675;28;20073;-73
2022/07/27 13:27:12;;;;;;;1.83;1.00;;;;;;;;;;5026086;28;20045;-74
2022/07/27 13:29:38;;;;;;;3.47;1.30;;;;;;;;;;5037886;28;20049;-72
2022/07/27 13:32:04;;;;;;;5.97;1.20;;;;;;;;;;5037599;28;20045;-72
2022/07/27 13:34:30;;;;;;;2.35;1.17;;;;;;;;;;5032878;28;20060;-76
2022/07/27 13:36:55;;;;;;;4.10;1.13;;;;;;;;;;5037450;28;20049;-73
2022/07/27 13:39:21;;;;;;;1.75;1.25;;;;;;;;;;5035490;28;20118;-72
2022/07/27 13:41:51;;;;;;;1.95;1.05;;;;;;;;;;5028904;28;20053;-73
2022/07/27 13:44:20;;;;;;;1.52;1.00;;;;;;;;;;5027771;28;20145;-73
2022/07/27 13:46:47;;;;;;;2.08;1.10;;;;;;;;;;5022822;28;20122;-70
2022/07/27 13:49:15;;;;;;;1.95;1.17;;;;;;;;;;5024377;28;20077;-72
2022/07/27 13:51:41;;;;;;;2.10;1.13;;;;;;;;;;5025720;28;20045;-71
2022/07/27 13:54:07;;;;;;;1.35;1.10;;;;;;;;;;5030263;28;20057;-77
2022/07/27 13:56:50;;;;;;;3.40;1.23;;;;;;;;;;5031794;28;20049;-72
2022/07/27 13:59:16;;;;;;;3.30;1.20;;;;;;;;;;5033557;28;20049;-72
2022/07/27 14:01:41;;;;;;;3.80;1.35;;;;;;;;;;5039179;28;20049;-73
2022/07/27 14:04:09;;;;;;;4.22;1.10;;;;;;;;;;5040166;28;20041;-71
2022/07/27 14:06:36;;;;;;;4.78;1.00;;;;;;;;;;5028391;28;20048;-72
2022/07/27 14:09:05;;;;;;;2.15;1.20;;;;;;;;;;5027629;28;20144;-73
2022/07/27 14:11:30;;;;;;;5.05;1.17;;;;;;;;;;5026037;28;20048;-72
2022/07/27 14:13:56;;;;;;;3.75;1.40;;;;;;;;;;5026240;28;20057;-72
2022/07/27 14:16:23;;;;;;;4.78;1.13;;;;;;;;;;5031338;28;20153;-73
2022/07/27 14:18:49;;;;;;;2.63;1.08;;;;;;;;;;5033197;28;20049;-73
2022/07/27 14:21:15;;;;;;;2.22;1.17;;;;;;;;;;5029013;28;20402;-73
2022/07/27 14:23:41;;;;;;;2.85;1.38;;;;;;;;;;5039847;28;20530;-72
2022/07/27 14:26:07;;;;;;;5.72;1.52;;;;;;;;;;5038435;28;20092;-72
2022/07/27 14:28:33;;;;;;;4.53;1.40;;;;;;;;;;5038564;28;20594;-72
2022/07/27 14:31:01;;;;;;;1.50;1.40;;;;;;;;;;5029028;28;21130;-72
2022/07/27 14:33:27;;;;;;;3.30;1.40;;;;;;;;;;5036925;28;20046;-73
2022/07/27 14:35:53;;;;;;;3.10;1.30;;;;;;;;;;5032611;28;20145;-72
2022/07/27 14:38:20;;;;;;;5.97;1.35;;;;;;;;;;5031456;28;20041;-73
2022/07/27 14:40:50;;;;;;;2.30;1.50;;;;;;;;;;5027348;28;20102;-73
2022/07/27 14:43:16;;;;;;;4.13;1.40;;;;;;;;;;5039324;28;20048;-73
2022/07/27 14:45:42;;;;;;;3.03;1.08;;;;;;;;;;5031032;28;20068;-73